createdAt,value
2017-11-20T00:00:47.868Z,6.18
2017-11-20T00:03:15.393Z,7.45
2017-11-20T00:05:43.737Z,7.20
2017-11-20T00:08:11.278Z,7.28
2017-11-20T00:10:38.799Z,6.95
2017-11-20T00:13:07.127Z,8.00
2017-11-20T00:15:34.667Z,7.40
2017-11-20T00:18:02.227Z,9.48
2017-11-20T00:20:29.766Z,7.80
2017-11-20T00:22:57.287Z,9.82
2017-11-20T00:25:24.798Z,6.87
2017-11-20T00:27:52.311Z,6.25
2017-11-20T00:30:19.850Z,7.45
2017-11-20T00:32:47.407Z,7.28
2017-11-20T00:35:14.975Z,7.28
2017-11-20T00:37:42.508Z,7.45
2017-11-20T00:40:10.066Z,8.35
2017-11-20T00:42:37.644Z,8.27
2017-11-20T00:45:05.171Z,6.90
2017-11-20T00:47:32.712Z,7.70
2017-11-20T00:50:00.252Z,8.10
2017-11-20T00:52:28.588Z,7.37
2017-11-20T00:54:56.112Z,8.50
2017-11-20T00:57:23.674Z,7.72
2017-11-20T00:59:51.201Z,7.60
2017-11-20T01:02:19.493Z,8.48
2017-11-20T01:04:47.050Z,7.65
2017-11-20T01:07:15.369Z,8.23
2017-11-20T01:09:42.946Z,7.72
2017-11-20T01:12:10.473Z,7.40
2017-11-20T01:14:38.027Z,8.30
2017-11-20T01:17:05.584Z,8.70
2017-11-20T01:19:33.157Z,8.10
2017-11-20T01:22:00.696Z,7.97
2017-11-20T01:24:28.255Z,8.48
2017-11-20T01:26:55.813Z,8.05
2017-11-20T01:29:23.401Z,7.65
2017-11-20T01:31:50.957Z,9.35
2017-11-20T01:34:18.479Z,8.43
2017-11-20T01:36:46.049Z,8.27
2017-11-20T01:39:13.720Z,7.90
2017-11-20T01:41:41.300Z,6.00
2017-11-20T01:44:08.865Z,7.10
2017-11-20T01:46:36.406Z,7.75
2017-11-20T01:49:03.982Z,6.65
2017-11-20T01:51:31.537Z,6.50
2017-11-20T01:53:59.121Z,8.00
2017-11-20T01:56:26.663Z,6.65
2017-11-20T01:58:54.226Z,7.82
2017-11-20T02:01:21.781Z,6.10
2017-11-20T02:03:49.322Z,5.87
2017-11-20T02:06:16.893Z,5.80
2017-11-20T02:08:44.451Z,6.75
2017-11-20T02:11:12.001Z,6.85
2017-11-20T02:13:39.524Z,6.82
2017-11-20T02:16:07.935Z,6.82
2017-11-20T02:18:35.552Z,6.72
2017-11-20T02:21:03.852Z,6.00
2017-11-20T02:23:31.430Z,7.45
2017-11-20T02:25:58.974Z,6.90
2017-11-20T02:28:26.533Z,8.32
2017-11-20T02:30:54.075Z,7.47
2017-11-20T02:33:21.619Z,7.45
2017-11-20T02:35:50.253Z,6.55
2017-11-20T02:38:17.795Z,6.80
2017-11-20T02:40:45.369Z,6.87
2017-11-20T02:43:12.927Z,8.15
2017-11-20T02:45:40.484Z,8.45
2017-11-20T02:48:08.049Z,7.75
2017-11-20T02:50:35.574Z,8.85
2017-11-20T02:53:03.913Z,9.18
2017-11-20T02:55:31.437Z,9.70
2017-11-20T02:57:58.991Z,9.65
2017-11-20T03:00:26.549Z,10.65
2017-11-20T03:02:54.076Z,10.15
2017-11-20T03:05:22.405Z,10.32
2017-11-20T03:07:49.946Z,12.52
2017-11-20T03:10:17.515Z,12.02
2017-11-20T03:12:45.058Z,13.10
2017-11-20T03:15:12.644Z,15.27
2017-11-20T03:17:40.206Z,17.90
2017-11-20T03:20:07.756Z,17.52
2017-11-20T03:22:35.411Z,18.55
2017-11-20T03:25:03.428Z,19.65
2017-11-20T03:27:31.754Z,19.42
2017-11-20T03:29:59.315Z,19.58
2017-11-20T03:32:26.868Z,19.02
2017-11-20T03:34:54.652Z,19.10
2017-11-20T03:37:22.220Z,16.17
2017-11-20T03:39:49.797Z,19.98
2017-11-20T03:42:17.324Z,19.73
2017-11-20T03:44:44.886Z,19.40
2017-11-20T03:47:12.441Z,17.98
2017-11-20T03:49:39.969Z,20.95
2017-11-20T03:52:07.527Z,22.30
2017-11-20T03:54:35.083Z,20.65
2017-11-20T03:57:02.650Z,20.08
2017-11-20T03:59:30.215Z,20.08
2017-11-20T04:01:57.801Z,23.15
2017-11-20T04:04:25.450Z,21.70
2017-11-20T04:06:53.029Z,21.37
2017-11-20T04:09:20.673Z,24.37
2017-11-20T04:11:48.231Z,21.67
2017-11-20T04:14:15.892Z,20.62
2017-11-20T04:16:43.450Z,19.70
2017-11-20T04:19:11.010Z,22.62
2017-11-20T04:21:38.600Z,19.62
2017-11-20T04:24:06.148Z,20.00
2017-11-20T04:26:33.707Z,17.70
2017-11-20T04:29:01.279Z,18.23
2017-11-20T04:31:28.842Z,15.95
2017-11-20T04:33:56.401Z,20.45
2017-11-20T04:36:23.957Z,18.08
2017-11-20T04:38:51.507Z,16.40
2017-11-20T04:41:19.051Z,17.10
2017-11-20T04:43:46.620Z,18.65
2017-11-20T04:46:14.163Z,16.50
2017-11-20T04:48:41.753Z,18.02
2017-11-20T04:51:09.313Z,15.63
2017-11-20T04:53:36.854Z,19.60
2017-11-20T04:56:04.429Z,19.70
2017-11-20T04:58:33.478Z,16.80
2017-11-20T05:01:01.042Z,17.15
2017-11-20T05:03:28.592Z,17.73
2017-11-20T05:05:56.133Z,17.37
2017-11-20T05:08:24.463Z,15.30
2017-11-20T05:10:52.003Z,12.88
2017-11-20T05:13:19.574Z,17.58
2017-11-20T05:15:47.115Z,14.10
2017-11-20T05:18:14.669Z,14.80
2017-11-20T05:20:42.216Z,14.02
2017-11-20T05:23:09.748Z,14.98
2017-11-20T05:25:37.303Z,15.82
2017-11-20T05:28:04.838Z,14.32
2017-11-20T05:30:32.433Z,14.87
2017-11-20T05:33:00.747Z,10.80
2017-11-20T05:35:28.291Z,12.88
2017-11-20T05:37:55.855Z,13.70
2017-11-20T05:40:23.381Z,14.07
2017-11-20T05:42:50.948Z,12.02
2017-11-20T05:45:19.262Z,11.68
2017-11-20T05:47:46.803Z,12.75
2017-11-20T05:50:14.367Z,11.70
2017-11-20T05:52:41.919Z,10.15
2017-11-20T05:55:09.472Z,12.45
2017-11-20T05:57:37.775Z,11.75
2017-11-20T06:00:05.333Z,11.55
2017-11-20T06:02:32.900Z,10.00
2017-11-20T06:05:00.443Z,11.23
2017-11-20T06:07:27.999Z,10.55
2017-11-20T06:09:55.538Z,10.20
2017-11-20T06:12:23.874Z,11.10
2017-11-20T06:14:51.401Z,10.23
2017-11-20T06:17:18.939Z,10.30
2017-11-20T06:19:46.502Z,9.65
2017-11-20T06:22:14.028Z,9.70
2017-11-20T06:24:41.587Z,10.68
2017-11-20T06:27:09.127Z,9.48
2017-11-20T06:29:36.668Z,9.60
2017-11-20T06:32:04.223Z,10.65
2017-11-20T06:34:31.797Z,10.00
2017-11-20T06:36:59.353Z,10.20
2017-11-20T06:39:26.880Z,9.73
2017-11-20T06:41:54.434Z,7.62
2017-11-20T06:44:21.995Z,10.27
2017-11-20T06:46:49.538Z,7.72
2017-11-20T06:49:17.867Z,8.98
2017-11-20T06:51:45.425Z,10.02
2017-11-20T06:54:12.962Z,9.02
2017-11-20T06:56:40.523Z,7.90
2017-11-20T06:59:08.191Z,7.70
2017-11-20T07:01:35.739Z,9.43
2017-11-20T07:04:03.304Z,8.20
2017-11-20T07:06:30.974Z,8.63
2017-11-20T07:08:58.534Z,8.93
2017-11-20T07:11:26.283Z,8.93
2017-11-20T07:13:53.837Z,8.05
2017-11-20T07:16:21.377Z,8.30
2017-11-20T07:18:49.664Z,8.45
2017-11-20T07:21:17.222Z,8.25
2017-11-20T07:23:44.759Z,9.60
2017-11-20T07:26:24.888Z,7.47
2017-11-20T07:29:04.403Z,8.60
2017-11-20T07:31:31.949Z,8.35
2017-11-20T07:37:12.330Z,8.88
2017-11-20T07:39:39.871Z,6.30
2017-11-20T07:42:07.445Z,7.78
2017-11-20T07:44:34.982Z,7.82
2017-11-20T07:47:03.322Z,6.65
2017-11-20T07:49:30.854Z,8.93
2017-11-20T07:51:58.425Z,7.05
2017-11-20T07:54:25.973Z,7.90
2017-11-20T07:56:53.511Z,7.68
2017-11-20T07:59:21.089Z,7.80
2017-11-20T08:01:48.631Z,7.72
2017-11-20T08:04:16.201Z,7.62
2017-11-20T08:06:43.739Z,7.90
2017-11-20T08:09:11.285Z,6.85
2017-11-20T08:11:39.610Z,8.63
2017-11-20T08:14:07.151Z,8.13
2017-11-20T08:16:34.719Z,7.53
2017-11-20T08:19:02.263Z,8.52
2017-11-20T08:21:29.838Z,8.02
2017-11-20T08:23:57.360Z,8.90
2017-11-20T08:26:25.810Z,8.65
2017-11-20T08:28:54.890Z,9.95
2017-11-20T08:31:22.413Z,8.85
2017-11-20T08:33:49.978Z,8.77
2017-11-20T08:36:17.529Z,9.70
2017-11-20T08:38:45.085Z,8.55
2017-11-20T08:41:12.642Z,9.82
2017-11-20T08:43:40.187Z,9.40
2017-11-20T08:46:08.511Z,7.57
2017-11-20T08:48:36.048Z,7.93
2017-11-20T08:51:03.603Z,8.75
2017-11-20T08:53:31.124Z,7.80
2017-11-20T08:55:59.469Z,8.63
2017-11-20T08:58:27.011Z,9.80
2017-11-20T09:00:54.574Z,7.62
2017-11-20T09:03:22.114Z,7.57
2017-11-20T09:05:49.653Z,6.37
2017-11-20T09:08:17.984Z,8.20
2017-11-20T09:10:45.505Z,6.47
2017-11-20T09:13:13.063Z,6.50
2017-11-20T09:15:40.616Z,8.02
2017-11-20T09:18:08.168Z,12.70
2017-11-20T09:20:36.489Z,6.05
2017-11-20T09:23:04.061Z,7.18
2017-11-20T09:25:31.608Z,6.50
2017-11-20T09:27:59.193Z,7.30
2017-11-20T09:30:26.737Z,5.87
2017-11-20T09:32:54.292Z,5.22
2017-11-20T09:35:21.852Z,6.20
2017-11-20T09:37:49.411Z,7.10
2017-11-20T09:40:16.933Z,7.40
2017-11-20T09:42:44.506Z,10.18
2017-11-20T09:45:12.048Z,7.87
2017-11-20T09:47:39.590Z,8.52
2017-11-20T09:50:07.928Z,9.95
2017-11-20T09:52:35.532Z,8.80
2017-11-20T09:55:03.867Z,9.93
2017-11-20T09:57:31.465Z,7.95
2017-11-20T09:59:59.761Z,9.60
2017-11-20T10:02:27.342Z,8.77
2017-11-20T10:04:54.901Z,9.43
2017-11-20T10:07:22.479Z,11.48
2017-11-20T10:09:50.001Z,7.45
2017-11-20T10:12:17.550Z,11.45
2017-11-20T10:14:45.127Z,9.40
2017-11-20T10:17:12.660Z,10.75
2017-11-20T10:19:40.984Z,8.48
2017-11-20T10:22:08.528Z,12.90
2017-11-20T10:24:36.088Z,11.07
2017-11-20T10:27:03.620Z,8.50
2017-11-20T10:29:31.163Z,9.32
2017-11-20T10:31:59.487Z,10.10
2017-11-20T10:34:27.045Z,12.27
2017-11-20T10:36:54.592Z,7.22
2017-11-20T10:39:22.116Z,8.27
2017-11-20T10:41:50.461Z,7.32
2017-11-20T10:44:17.999Z,7.72
2017-11-20T10:46:45.554Z,7.32
2017-11-20T10:49:13.097Z,5.95
2017-11-20T10:51:40.653Z,5.57
2017-11-20T10:54:08.225Z,5.70
2017-11-20T10:56:35.763Z,5.07
2017-11-20T10:59:03.309Z,5.53
2017-11-20T11:01:31.611Z,5.93
2017-11-20T11:03:59.155Z,5.45
2017-11-20T11:06:26.701Z,4.35
2017-11-20T11:08:55.019Z,4.55
2017-11-20T11:11:22.572Z,4.15
2017-11-20T11:13:50.114Z,5.30
2017-11-20T11:16:17.697Z,5.85
2017-11-20T11:18:45.254Z,5.97
2017-11-20T11:21:12.799Z,4.90
2017-11-20T11:23:40.363Z,6.32
2017-11-20T11:26:07.931Z,5.12
2017-11-20T11:28:35.531Z,5.30
2017-11-20T11:31:03.076Z,6.25
2017-11-20T11:33:30.629Z,6.97
2017-11-20T11:35:58.237Z,5.90
2017-11-20T11:38:26.565Z,5.45
2017-11-20T11:40:54.121Z,7.95
2017-11-20T11:43:21.688Z,7.70
2017-11-20T11:45:49.251Z,7.90
2017-11-20T11:48:16.791Z,6.00
2017-11-20T11:50:44.327Z,5.60
2017-11-20T11:53:11.891Z,6.32
2017-11-20T11:55:39.429Z,4.00
2017-11-20T11:58:07.763Z,3.97
2017-11-20T12:00:35.314Z,2.75
2017-11-20T12:03:02.860Z,3.50
2017-11-20T12:05:30.433Z,3.20
2017-11-20T12:07:57.970Z,2.15
2017-11-20T12:10:25.507Z,3.10
2017-11-20T12:12:53.040Z,3.50
2017-11-20T12:15:20.603Z,2.50
2017-11-20T12:17:48.906Z,4.10
2017-11-20T12:20:16.437Z,5.43
2017-11-20T12:22:43.990Z,5.35
2017-11-20T12:25:11.524Z,4.78
2017-11-20T12:27:39.081Z,6.75
2017-11-20T12:30:06.617Z,4.07
2017-11-20T12:32:34.186Z,3.78
2017-11-20T12:35:01.708Z,4.10
2017-11-20T12:37:30.027Z,4.68
2017-11-20T12:39:57.577Z,4.78
2017-11-20T12:42:25.130Z,4.25
2017-11-20T12:44:52.681Z,2.85
2017-11-20T12:47:20.251Z,4.28
2017-11-20T12:49:47.782Z,1.83
2017-11-20T12:52:16.099Z,2.42
2017-11-20T12:54:43.658Z,2.67
2017-11-20T12:57:11.199Z,2.60
2017-11-20T12:59:38.767Z,3.55
2017-11-20T13:02:06.296Z,3.00
2017-11-20T13:04:34.599Z,3.50
2017-11-20T13:07:02.173Z,2.42
2017-11-20T13:09:29.715Z,2.60
2017-11-20T13:11:57.292Z,2.72
2017-11-20T13:14:24.830Z,2.28
2017-11-20T13:16:52.395Z,3.33
2017-11-20T13:19:19.939Z,2.62
2017-11-20T13:21:47.492Z,5.03
2017-11-20T13:24:15.088Z,2.97
2017-11-20T13:26:42.630Z,2.40
2017-11-20T13:29:10.187Z,2.78
2017-11-20T13:31:37.720Z,10.98
2017-11-20T13:34:06.046Z,3.03
2017-11-20T13:36:33.596Z,2.75
2017-11-20T13:39:01.153Z,3.45
2017-11-20T13:41:28.694Z,4.30
2017-11-20T13:43:56.248Z,3.35
2017-11-20T13:46:23.773Z,4.40
2017-11-20T13:48:51.315Z,3.87
2017-11-20T13:51:18.875Z,2.87
2017-11-20T13:53:46.391Z,3.55
2017-11-20T13:56:13.973Z,8.68
2017-11-20T13:58:41.540Z,4.85
2017-11-20T14:01:09.081Z,3.80
2017-11-20T14:03:36.640Z,4.15
2017-11-20T14:06:17.835Z,7.20
2017-11-20T14:08:45.400Z,4.85
2017-11-20T14:11:12.990Z,6.90
2017-11-20T14:13:41.334Z,7.53
2017-11-20T14:16:08.889Z,4.43
2017-11-20T14:18:36.444Z,7.35
2017-11-20T14:21:04.016Z,6.75
2017-11-20T14:23:31.555Z,7.03
2017-11-20T14:25:59.136Z,7.07
2017-11-20T14:28:26.671Z,4.18
2017-11-20T14:30:54.223Z,8.20
2017-11-20T14:33:21.800Z,6.72
2017-11-20T14:35:49.324Z,15.75
2017-11-20T14:38:16.873Z,8.80
2017-11-20T14:40:44.414Z,7.87
2017-11-20T14:43:12.727Z,11.05
2017-11-20T14:45:40.309Z,16.25
2017-11-20T14:48:14.683Z,11.68
2017-11-20T14:50:42.255Z,4.62
2017-11-20T14:53:09.776Z,3.35
2017-11-20T14:55:37.323Z,3.65
2017-11-20T14:58:04.893Z,2.87
2017-11-20T15:00:32.431Z,2.75
2017-11-20T15:02:59.998Z,2.97
2017-11-20T15:05:27.515Z,3.55
2017-11-20T15:07:55.097Z,2.95
2017-11-20T15:10:22.624Z,4.32
2017-11-20T15:12:50.163Z,4.15
2017-11-20T15:15:18.487Z,3.67
2017-11-20T15:17:46.479Z,2.00
2017-11-20T15:20:14.451Z,2.10
2017-11-20T15:22:42.763Z,2.37
2017-11-20T15:25:11.073Z,1.80
2017-11-20T15:27:38.631Z,2.30
2017-11-20T15:30:06.171Z,2.15
2017-11-20T15:32:33.753Z,2.40
2017-11-20T15:35:01.311Z,2.22
2017-11-20T15:37:28.855Z,4.72
2017-11-20T15:39:56.407Z,2.60
2017-11-20T15:42:23.977Z,2.50
2017-11-20T15:44:51.532Z,2.45
2017-11-20T15:47:19.069Z,2.55
2017-11-20T15:49:47.382Z,3.45
2017-11-20T15:52:14.936Z,3.53
2017-11-20T15:54:42.475Z,3.15
2017-11-20T15:57:10.039Z,2.80
2017-11-20T15:59:37.568Z,2.45
2017-11-20T16:02:05.991Z,2.97
2017-11-20T16:04:33.540Z,3.00
2017-11-20T16:07:01.100Z,3.05
2017-11-20T16:09:28.670Z,3.20
2017-11-20T16:11:56.214Z,4.97
2017-11-20T16:14:23.751Z,4.05
2017-11-20T16:16:52.090Z,5.60
2017-11-20T16:19:19.645Z,5.30
2017-11-20T16:21:47.192Z,4.40
2017-11-20T16:24:14.726Z,4.65
2017-11-20T16:26:42.245Z,5.75
2017-11-20T16:29:09.803Z,7.87
2017-11-20T16:31:37.365Z,5.85
2017-11-20T16:34:04.938Z,6.45
2017-11-20T16:36:33.242Z,5.78
2017-11-20T16:39:00.815Z,4.10
2017-11-20T16:41:28.340Z,3.92
2017-11-20T16:43:56.657Z,4.05
2017-11-20T16:46:24.250Z,5.12
2017-11-20T16:48:53.293Z,3.00
2017-11-20T16:51:20.971Z,3.83
2017-11-20T16:53:48.533Z,2.95
2017-11-20T16:56:16.090Z,2.75
2017-11-20T16:58:52.369Z,3.10
2017-11-20T17:01:31.955Z,3.40
2017-11-20T17:04:00.274Z,3.35
2017-11-20T17:06:27.852Z,3.17
2017-11-20T17:08:55.433Z,2.60
2017-11-20T17:11:22.961Z,3.08
2017-11-20T17:13:50.557Z,2.70
2017-11-20T17:16:18.099Z,2.15
2017-11-20T17:18:45.726Z,2.55
2017-11-20T17:21:13.316Z,3.00
2017-11-20T17:23:40.842Z,2.92
2017-11-20T17:26:08.553Z,1.95
2017-11-20T17:28:36.101Z,1.60
2017-11-20T17:31:03.650Z,1.80
2017-11-20T17:33:31.187Z,1.35
2017-11-20T17:35:58.765Z,2.10
2017-11-20T17:38:26.324Z,1.40
2017-11-20T17:40:53.877Z,1.50
2017-11-20T17:43:21.483Z,1.30
2017-11-20T17:45:49.783Z,1.20
2017-11-20T17:48:17.343Z,1.45
2017-11-20T17:50:44.888Z,1.40
2017-11-20T17:53:12.428Z,1.08
2017-11-20T17:55:40.739Z,1.25
2017-11-20T17:58:08.321Z,1.40
2017-11-20T18:00:35.873Z,1.30
2017-11-20T18:03:03.410Z,1.45
2017-11-20T18:05:30.999Z,1.35
2017-11-20T18:07:58.540Z,1.83
2017-11-20T18:10:26.115Z,10.07
2017-11-20T18:12:53.652Z,3.83
2017-11-20T18:15:21.205Z,1.48
2017-11-20T18:17:48.733Z,2.97
2017-11-20T18:20:17.063Z,4.32
2017-11-20T18:22:44.610Z,2.37
2017-11-20T18:25:12.181Z,3.55
2017-11-20T18:27:39.722Z,3.00
2017-11-20T18:30:07.918Z,2.70
2017-11-20T18:32:35.455Z,2.45
2017-11-20T18:35:03.013Z,2.00
2017-11-20T18:37:30.579Z,2.35
2017-11-20T18:39:58.104Z,4.20
2017-11-20T18:42:26.485Z,1.75
2017-11-20T18:44:54.777Z,1.62
2017-11-20T18:47:22.334Z,2.58
2017-11-20T18:49:50.639Z,1.90
2017-11-20T18:52:18.609Z,2.25
2017-11-20T18:54:48.044Z,1.55
2017-11-20T18:57:15.785Z,1.30
2017-11-20T18:59:43.366Z,1.70
2017-11-20T19:02:22.932Z,1.45
2017-11-20T19:05:02.347Z,1.60
2017-11-20T19:10:35.628Z,1.50
2017-11-20T19:13:03.388Z,2.20
2017-11-20T19:15:30.987Z,1.60
2017-11-20T19:17:59.326Z,1.40
2017-11-20T19:20:26.899Z,1.60
2017-11-20T19:22:54.517Z,1.33
2017-11-20T19:25:22.097Z,2.40
2017-11-20T19:27:49.658Z,2.10
2017-11-20T19:30:17.434Z,2.00
2017-11-20T19:32:45.004Z,2.20
2017-11-20T19:35:12.552Z,2.37
2017-11-20T19:37:40.150Z,2.05
2017-11-20T19:40:07.704Z,1.95
2017-11-20T19:42:35.258Z,1.98
2017-11-20T19:45:03.613Z,1.52
2017-11-20T19:47:31.184Z,1.80
2017-11-20T19:49:58.751Z,1.60
2017-11-20T19:52:27.091Z,1.35
2017-11-20T19:54:54.659Z,1.50
2017-11-20T19:57:22.345Z,1.70
2017-11-20T19:59:49.919Z,2.40
2017-11-20T20:02:17.478Z,2.05
2017-11-20T20:04:45.100Z,1.45
2017-11-20T20:07:12.650Z,1.70
2017-11-20T20:09:40.207Z,1.77
2017-11-20T20:12:07.752Z,1.77
2017-11-20T20:14:47.292Z,2.35
2017-11-20T20:17:14.958Z,1.90
2017-11-20T20:19:42.521Z,1.67
2017-11-20T20:22:10.176Z,2.40
2017-11-20T20:24:37.739Z,2.17
2017-11-20T20:27:05.291Z,1.50
2017-11-20T20:29:32.866Z,2.00
2017-11-20T20:32:00.410Z,1.77
2017-11-20T20:34:27.981Z,2.40
2017-11-20T20:36:55.509Z,1.95
2017-11-20T20:39:23.836Z,2.00
2017-11-20T20:41:51.402Z,2.35
2017-11-20T20:44:18.933Z,2.10
2017-11-20T20:46:46.513Z,2.72
2017-11-20T20:49:14.078Z,2.00
2017-11-20T20:51:41.641Z,2.30
2017-11-20T20:54:09.176Z,2.90
2017-11-20T20:56:36.708Z,2.90
2017-11-20T20:59:05.035Z,2.87
2017-11-20T21:01:32.580Z,3.12
2017-11-20T21:04:00.171Z,2.67
2017-11-20T21:06:27.743Z,3.75
2017-11-20T21:08:56.066Z,3.28
2017-11-20T21:11:29.531Z,3.35
2017-11-20T21:13:57.076Z,3.40
2017-11-20T21:16:24.647Z,3.70
2017-11-20T21:18:52.952Z,4.12
2017-11-20T21:21:20.522Z,4.35
2017-11-20T21:23:48.083Z,5.45
2017-11-20T21:26:15.615Z,4.28
2017-11-20T21:28:43.186Z,4.30
2017-11-20T21:31:10.734Z,4.70
2017-11-20T21:33:38.278Z,5.20
2017-11-20T21:36:06.618Z,5.13
2017-11-20T21:38:34.168Z,5.35
2017-11-20T21:41:01.767Z,5.57
2017-11-20T21:43:30.060Z,6.20
2017-11-20T21:45:57.589Z,7.43
2017-11-20T21:48:25.480Z,7.80
2017-11-20T21:50:53.795Z,6.40
2017-11-20T21:53:21.361Z,7.78
2017-11-20T21:55:48.885Z,7.70
2017-11-20T21:58:16.470Z,8.23
2017-11-20T22:00:44.088Z,7.57
2017-11-20T22:03:12.406Z,7.13
2017-11-20T22:05:39.983Z,8.23
2017-11-20T22:08:07.542Z,7.93
2017-11-20T22:10:35.091Z,8.83
2017-11-20T22:13:14.527Z,8.07
2017-11-20T22:15:42.082Z,9.60
2017-11-20T22:18:09.651Z,9.40
2017-11-20T22:20:37.198Z,8.87
2017-11-20T22:23:04.743Z,11.30
2017-11-20T22:25:32.292Z,10.30
2017-11-20T22:28:00.593Z,10.90
2017-11-20T22:30:28.176Z,9.10
2017-11-20T22:32:55.822Z,9.03
2017-11-20T22:35:23.380Z,10.17
2017-11-20T22:37:51.044Z,10.57
2017-11-20T22:40:18.586Z,10.17
2017-11-20T22:42:46.188Z,10.60
2017-11-20T22:45:13.746Z,11.03
2017-11-20T22:47:41.334Z,8.50
2017-11-20T22:50:09.643Z,8.73
2017-11-20T22:52:37.455Z,8.80
2017-11-20T22:55:05.023Z,8.70
2017-11-20T22:57:33.317Z,9.20
2017-11-20T23:00:01.639Z,9.20
2017-11-20T23:02:29.195Z,8.87
2017-11-20T23:04:56.755Z,8.67
2017-11-20T23:07:24.312Z,8.57
2017-11-20T23:09:51.881Z,8.67
2017-11-20T23:12:19.440Z,8.57
2017-11-20T23:14:46.996Z,9.57
2017-11-20T23:17:14.520Z,7.77
2017-11-20T23:19:42.100Z,8.80
2017-11-20T23:22:09.645Z,8.97
2017-11-20T23:24:37.200Z,7.70
2017-11-20T23:27:04.768Z,7.60
2017-11-20T23:29:32.325Z,7.07
2017-11-20T23:31:59.888Z,6.90
2017-11-20T23:34:27.431Z,5.20
2017-11-20T23:36:54.983Z,5.72
2017-11-20T23:39:23.298Z,5.30
2017-11-20T23:41:50.849Z,5.90
2017-11-20T23:44:18.414Z,5.37
2017-11-20T23:46:45.955Z,5.43
2017-11-20T23:49:13.476Z,5.53
2017-11-20T23:51:41.035Z,5.83
2017-11-20T23:54:08.560Z,6.83
2017-11-20T23:56:36.119Z,6.30
2017-11-20T23:59:03.641Z,6.70
